sensor_id;sensor_type;location;lat;lon;timestamp;pressure;altitude;pressure_sealevel;temperature;humidity
59787;BME280;45672;51.612;5.536;2023-03-03T00:00:20;102204.16;;;1.30;100.00
59787;BME280;45672;51.612;5.536;2023-03-03T00:02:45;102211.41;;;1.23;100.00
59787;BME280;45672;51.612;5.536;2023-03-03T00:05:10;102207.94;;;1.23;100.00
59787;BME280;45672;51.612;5.536;2023-03-03T00:07:42;102212.31;;;1.22;100.00
59787;BME280;45672;51.612;5.536;2023-03-03T00:10:07;102215.72;;;1.24;100.00
59787;BME280;45672;51.612;5.536;2023-03-03T00:12:33;102225.41;;;1.22;100.00
59787;BME280;45672;51.612;5.536;2023-03-03T00:14:59;102230.72;;;1.20;100.00
59787;BME280;45672;51.612;5.536;2023-03-03T00:17:29;102231.75;;;1.16;100.00
59787;BME280;45672;51.612;5.536;2023-03-03T00:19:55;102227.25;;;1.20;100.00
59787;BME280;45672;51.612;5.536;2023-03-03T00:22:30;102222.97;;;1.17;100.00
59787;BME280;45672;51.612;5.536;2023-03-03T00:27:43;102236.91;;;1.19;100.00
59787;BME280;45672;51.612;5.536;2023-03-03T00:30:19;102231.53;;;1.23;100.00
59787;BME280;45672;51.612;5.536;2023-03-03T00:32:44;102228.91;;;1.23;100.00
59787;BME280;45672;51.612;5.536;2023-03-03T00:35:26;102232.38;;;1.23;100.00
59787;BME280;45672;51.612;5.536;2023-03-03T00:37:58;102237.50;;;1.26;100.00
59787;BME280;45672;51.612;5.536;2023-03-03T00:40:32;102231.28;;;1.29;100.00
59787;BME280;45672;51.612;5.536;2023-03-03T00:42:59;102232.13;;;1.29;100.00
59787;BME280;45672;51.612;5.536;2023-03-03T00:45:26;102233.66;;;1.35;100.00
59787;BME280;45672;51.612;5.536;2023-03-03T00:47:52;102229.34;;;1.34;100.00
59787;BME280;45672;51.612;5.536;2023-03-03T00:50:28;102230.88;;;1.40;100.00
59787;BME280;45672;51.612;5.536;2023-03-03T00:53:00;102232.63;;;1.39;100.00
59787;BME280;45672;51.612;5.536;2023-03-03T00:55:27;102236.94;;;1.40;100.00
59787;BME280;45672;51.612;5.536;2023-03-03T00:57:52;102236.03;;;1.41;100.00
59787;BME280;45672;51.612;5.536;2023-03-03T01:00:18;102236.81;;;1.43;100.00
59787;BME280;45672;51.612;5.536;2023-03-03T01:02:43;102238.03;;;1.34;100.00
59787;BME280;45672;51.612;5.536;2023-03-03T01:05:12;102234.53;;;1.35;100.00
59787;BME280;45672;51.612;5.536;2023-03-03T01:07:38;102245.66;;;1.41;100.00
59787;BME280;45672;51.612;5.536;2023-03-03T01:10:04;102234.94;;;1.25;100.00
59787;BME280;45672;51.612;5.536;2023-03-03T01:12:29;102243.88;;;1.19;100.00
59787;BME280;45672;51.612;5.536;2023-03-03T01:14:55;102251.19;;;1.11;100.00
59787;BME280;45672;51.612;5.536;2023-03-03T01:17:20;102251.25;;;1.09;100.00
59787;BME280;45672;51.612;5.536;2023-03-03T01:19:46;102248.47;;;1.14;100.00
59787;BME280;45672;51.612;5.536;2023-03-03T01:22:11;102250.91;;;1.18;100.00
59787;BME280;45672;51.612;5.536;2023-03-03T01:24:36;102255.34;;;1.16;100.00
59787;BME280;45672;51.612;5.536;2023-03-03T01:27:02;102248.47;;;1.14;100.00
59787;BME280;45672;51.612;5.536;2023-03-03T01:29:27;102254.69;;;1.11;100.00
59787;BME280;45672;51.612;5.536;2023-03-03T01:31:52;102261.59;;;1.14;100.00
59787;BME280;45672;51.612;5.536;2023-03-03T01:34:18;102254.56;;;1.14;100.00
59787;BME280;45672;51.612;5.536;2023-03-03T01:36:43;102270.28;;;1.14;100.00
59787;BME280;45672;51.612;5.536;2023-03-03T01:39:09;102264.09;;;0.93;100.00
59787;BME280;45672;51.612;5.536;2023-03-03T01:41:35;102264.91;;;0.95;100.00
59787;BME280;45672;51.612;5.536;2023-03-03T01:44:00;102257.06;;;0.94;100.00
59787;BME280;45672;51.612;5.536;2023-03-03T01:49:28;102269.28;;;0.95;100.00
59787;BME280;45672;51.612;5.536;2023-03-03T01:52:09;102262.81;;;1.03;100.00
59787;BME280;45672;51.612;5.536;2023-03-03T01:54:47;102262.66;;;1.08;100.00
59787;BME280;45672;51.612;5.536;2023-03-03T01:57:20;102263.16;;;1.18;100.00
59787;BME280;45672;51.612;5.536;2023-03-03T01:59:48;102261.00;;;1.06;100.00
59787;BME280;45672;51.612;5.536;2023-03-03T02:02:15;102252.19;;;1.08;100.00
59787;BME280;45672;51.612;5.536;2023-03-03T02:04:40;102266.31;;;1.04;100.00
59787;BME280;45672;51.612;5.536;2023-03-03T02:07:08;102267.06;;;0.84;100.00
59787;BME280;45672;51.612;5.536;2023-03-03T02:12:22;102265.66;;;0.74;100.00
59787;BME280;45672;51.612;5.536;2023-03-03T02:14:49;102270.97;;;0.72;100.00
59787;BME280;45672;51.612;5.536;2023-03-03T02:17:15;102262.28;;;0.72;100.00
59787;BME280;45672;51.612;5.536;2023-03-03T02:20:02;102263.13;;;0.72;100.00
59787;BME280;45672;51.612;5.536;2023-03-03T02:22:43;102254.34;;;0.73;100.00
59787;BME280;45672;51.612;5.536;2023-03-03T02:25:19;102269.06;;;0.77;100.00
59787;BME280;45672;51.612;5.536;2023-03-03T02:27:49;102264.44;;;0.84;100.00
59787;BME280;45672;51.612;5.536;2023-03-03T02:30:21;102265.88;;;0.93;100.00
59787;BME280;45672;51.612;5.536;2023-03-03T02:32:46;102268.25;;;0.99;100.00
59787;BME280;45672;51.612;5.536;2023-03-03T02:35:26;102269.91;;;1.01;100.00
59787;BME280;45672;51.612;5.536;2023-03-03T02:37:52;102260.84;;;0.86;100.00
59787;BME280;45672;51.612;5.536;2023-03-03T02:40:20;102258.00;;;0.93;100.00
59787;BME280;45672;51.612;5.536;2023-03-03T02:42:49;102261.06;;;0.80;100.00
59787;BME280;45672;51.612;5.536;2023-03-03T02:45:16;102253.91;;;0.85;100.00
59787;BME280;45672;51.612;5.536;2023-03-03T02:47:48;102254.94;;;0.81;100.00
59787;BME280;45672;51.612;5.536;2023-03-03T02:50:13;102259.03;;;0.89;100.00
59787;BME280;45672;51.612;5.536;2023-03-03T02:52:39;102260.22;;;0.80;100.00
59787;BME280;45672;51.612;5.536;2023-03-03T02:55:05;102240.13;;;0.80;100.00
59787;BME280;45672;51.612;5.536;2023-03-03T02:57:30;102260.38;;;0.99;100.00
59787;BME280;45672;51.612;5.536;2023-03-03T02:59:55;102251.34;;;0.84;100.00
59787;BME280;45672;51.612;5.536;2023-03-03T03:02:21;102258.50;;;0.79;100.00
59787;BME280;45672;51.612;5.536;2023-03-03T03:04:46;102256.84;;;0.76;100.00
59787;BME280;45672;51.612;5.536;2023-03-03T03:07:11;102255.19;;;0.74;100.00
59787;BME280;45672;51.612;5.536;2023-03-03T03:09:37;102249.09;;;0.73;100.00
59787;BME280;45672;51.612;5.536;2023-03-03T03:12:02;102252.47;;;0.77;100.00
59787;BME280;45672;51.612;5.536;2023-03-03T03:14:28;102259.22;;;0.82;100.00
59787;BME280;45672;51.612;5.536;2023-03-03T03:16:53;102261.72;;;0.87;100.00
59787;BME280;45672;51.612;5.536;2023-03-03T03:19:18;102265.94;;;0.91;100.00
59787;BME280;45672;51.612;5.536;2023-03-03T03:21:44;102274.00;;;0.85;100.00
59787;BME280;45672;51.612;5.536;2023-03-03T03:24:09;102275.88;;;0.81;100.00
59787;BME280;45672;51.612;5.536;2023-03-03T03:26:34;102270.72;;;0.80;100.00
59787;BME280;45672;51.612;5.536;2023-03-03T03:29:00;102276.91;;;0.77;100.00
59787;BME280;45672;51.612;5.536;2023-03-03T03:31:25;102271.78;;;0.74;100.00
59787;BME280;45672;51.612;5.536;2023-03-03T03:33:50;102274.34;;;0.76;100.00
59787;BME280;45672;51.612;5.536;2023-03-03T03:36:17;102270.97;;;0.72;100.00
59787;BME280;45672;51.612;5.536;2023-03-03T03:38:42;102280.44;;;0.76;100.00
59787;BME280;45672;51.612;5.536;2023-03-03T03:41:07;102267.28;;;0.52;100.00
59787;BME280;45672;51.612;5.536;2023-03-03T03:43:33;102266.50;;;0.50;100.00
59787;BME280;45672;51.612;5.536;2023-03-03T03:45:58;102263.00;;;0.51;100.00
59787;BME280;45672;51.612;5.536;2023-03-03T03:48:24;102278.91;;;0.45;100.00
59787;BME280;45672;51.612;5.536;2023-03-03T03:50:49;102279.84;;;0.44;100.00
59787;BME280;45672;51.612;5.536;2023-03-03T03:53:16;102272.06;;;0.41;100.00
59787;BME280;45672;51.612;5.536;2023-03-03T03:55:42;102275.56;;;0.42;100.00
59787;BME280;45672;51.612;5.536;2023-03-03T03:58:15;102281.22;;;0.55;100.00
59787;BME280;45672;51.612;5.536;2023-03-03T04:00:41;102284.31;;;0.41;100.00
59787;BME280;45672;51.612;5.536;2023-03-03T04:03:07;102288.47;;;0.46;100.00
59787;BME280;45672;51.612;5.536;2023-03-03T04:05:33;102285.00;;;0.46;100.00
59787;BME280;45672;51.612;5.536;2023-03-03T04:07:58;102284.84;;;0.50;100.00
59787;BME280;45672;51.612;5.536;2023-03-03T04:10:23;102285.38;;;0.60;100.00
59787;BME280;45672;51.612;5.536;2023-03-03T04:12:49;102284.66;;;0.55;100.00
59787;BME280;45672;51.612;5.536;2023-03-03T04:15:14;102291.75;;;0.53;100.00
59787;BME280;45672;51.612;5.536;2023-03-03T04:17:41;102285.63;;;0.52;100.00
59787;BME280;45672;51.612;5.536;2023-03-03T04:20:10;102277.63;;;0.57;100.00
59787;BME280;45672;51.612;5.536;2023-03-03T04:22:36;102282.63;;;0.63;100.00
59787;BME280;45672;51.612;5.536;2023-03-03T04:25:02;102283.47;;;0.64;100.00
59787;BME280;45672;51.612;5.536;2023-03-03T04:27:34;102278.31;;;0.62;100.00
59787;BME280;45672;51.612;5.536;2023-03-03T04:29:59;102277.56;;;0.59;100.00
59787;BME280;45672;51.612;5.536;2023-03-03T04:32:25;102281.63;;;0.67;100.00
59787;BME280;45672;51.612;5.536;2023-03-03T04:34:50;102280.78;;;0.67;100.00
59787;BME280;45672;51.612;5.536;2023-03-03T04:37:15;102294.56;;;0.72;100.00
59787;BME280;45672;51.612;5.536;2023-03-03T04:39:41;102285.78;;;0.73;100.00
59787;BME280;45672;51.612;5.536;2023-03-03T04:42:06;102284.19;;;0.69;100.00
59787;BME280;45672;51.612;5.536;2023-03-03T04:44:32;102279.91;;;0.66;100.00
59787;BME280;45672;51.612;5.536;2023-03-03T04:46:57;102291.75;;;0.77;100.00
59787;BME280;45672;51.612;5.536;2023-03-03T04:49:22;102291.59;;;0.81;100.00
59787;BME280;45672;51.612;5.536;2023-03-03T04:51:48;102295.06;;;0.82;100.00
59787;BME280;45672;51.612;5.536;2023-03-03T04:54:13;102289.66;;;0.86;100.00
59787;BME280;45672;51.612;5.536;2023-03-03T04:56:38;102281.91;;;0.83;100.00
59787;BME280;45672;51.612;5.536;2023-03-03T04:59:04;102293.22;;;0.85;100.00
59787;BME280;45672;51.612;5.536;2023-03-03T05:01:29;102288.88;;;0.84;100.00
59787;BME280;45672;51.612;5.536;2023-03-03T05:03:54;102287.91;;;0.87;100.00
59787;BME280;45672;51.612;5.536;2023-03-03T05:06:20;102276.66;;;0.83;100.00
59787;BME280;45672;51.612;5.536;2023-03-03T05:08:45;102292.19;;;0.90;100.00
59787;BME280;45672;51.612;5.536;2023-03-03T05:11:11;102293.72;;;0.95;100.00
59787;BME280;45672;51.612;5.536;2023-03-03T05:13:38;102293.66;;;0.97;100.00
59787;BME280;45672;51.612;5.536;2023-03-03T05:16:03;102299.50;;;1.03;100.00
59787;BME280;45672;51.612;5.536;2023-03-03T05:18:29;102299.50;;;1.03;100.00
59787;BME280;45672;51.612;5.536;2023-03-03T05:20:54;102299.75;;;0.97;100.00
59787;BME280;45672;51.612;5.536;2023-03-03T05:23:19;102299.81;;;0.96;100.00
59787;BME280;45672;51.612;5.536;2023-03-03T05:25:48;102296.22;;;0.98;100.00
59787;BME280;45672;51.612;5.536;2023-03-03T05:28:14;102289.97;;;1.02;100.00
59787;BME280;45672;51.612;5.536;2023-03-03T05:30:39;102296.06;;;1.03;100.00
59787;BME280;45672;51.612;5.536;2023-03-03T05:33:05;102295.16;;;1.04;100.00
59787;BME280;45672;51.612;5.536;2023-03-03T05:35:31;102300.16;;;1.10;100.00
59787;BME280;45672;51.612;5.536;2023-03-03T05:37:57;102289.09;;;1.02;100.00
59787;BME280;45672;51.612;5.536;2023-03-03T05:40:26;102303.75;;;1.08;100.00
59787;BME280;45672;51.612;5.536;2023-03-03T05:42:52;102305.50;;;1.07;100.00
59787;BME280;45672;51.612;5.536;2023-03-03T05:45:18;102304.63;;;1.08;100.00
59787;BME280;45672;51.612;5.536;2023-03-03T05:47:49;102304.63;;;1.07;100.00
59787;BME280;45672;51.612;5.536;2023-03-03T05:50:14;102302.78;;;1.10;100.00
59787;BME280;45672;51.612;5.536;2023-03-03T05:52:40;102305.28;;;1.13;100.00
59787;BME280;45672;51.612;5.536;2023-03-03T05:55:05;102306.09;;;1.15;100.00
59787;BME280;45672;51.612;5.536;2023-03-03T05:57:31;102305.28;;;1.13;100.00
59787;BME280;45672;51.612;5.536;2023-03-03T05:59:56;102301.06;;;1.09;100.00
59787;BME280;45672;51.612;5.536;2023-03-03T06:02:22;102302.53;;;1.16;100.00
59787;BME280;45672;51.612;5.536;2023-03-03T06:04:47;102302.44;;;1.19;100.00
59787;BME280;45672;51.612;5.536;2023-03-03T06:07:12;102304.06;;;1.22;100.00
59787;BME280;45672;51.612;5.536;2023-03-03T06:09:38;102301.22;;;1.28;100.00
59787;BME280;45672;51.612;5.536;2023-03-03T06:12:03;102315.31;;;1.26;100.00
59787;BME280;45672;51.612;5.536;2023-03-03T06:14:29;102325.56;;;1.32;100.00
59787;BME280;45672;51.612;5.536;2023-03-03T06:16:54;102321.97;;;1.34;100.00
59787;BME280;45672;51.612;5.536;2023-03-03T06:19:21;102320.56;;;1.26;100.00
59787;BME280;45672;51.612;5.536;2023-03-03T06:21:47;102328.22;;;1.30;100.00
59787;BME280;45672;51.612;5.536;2023-03-03T06:24:12;102334.38;;;1.29;100.00
59787;BME280;45672;51.612;5.536;2023-03-03T06:26:37;102330.13;;;1.27;100.00
59787;BME280;45672;51.612;5.536;2023-03-03T06:29:03;102337.06;;;1.28;100.00
59787;BME280;45672;51.612;5.536;2023-03-03T06:31:28;102337.94;;;1.28;100.00
59787;BME280;45672;51.612;5.536;2023-03-03T06:33:53;102340.50;;;1.30;100.00
59787;BME280;45672;51.612;5.536;2023-03-03T06:36:19;102337.13;;;1.26;100.00
59787;BME280;45672;51.612;5.536;2023-03-03T06:38:45;102350.94;;;1.31;100.00
59787;BME280;45672;51.612;5.536;2023-03-03T06:41:10;102349.78;;;1.38;100.00
59787;BME280;45672;51.612;5.536;2023-03-03T06:43:36;102355.88;;;1.39;100.00
59787;BME280;45672;51.612;5.536;2023-03-03T06:46:03;102360.47;;;1.34;100.00
59787;BME280;45672;51.612;5.536;2023-03-03T06:48:30;102364.63;;;1.40;100.00
59787;BME280;45672;51.612;5.536;2023-03-03T06:50:56;102365.47;;;1.40;100.00
59787;BME280;45672;51.612;5.536;2023-03-03T06:53:23;102367.31;;;1.38;100.00
59787;BME280;45672;51.612;5.536;2023-03-03T06:55:49;102368.78;;;1.45;100.00
59787;BME280;45672;51.612;5.536;2023-03-03T06:58:17;102373.38;;;1.38;100.00
59787;BME280;45672;51.612;5.536;2023-03-03T07:00:52;102365.41;;;1.42;100.00
59787;BME280;45672;51.612;5.536;2023-03-03T07:03:24;102379.25;;;1.45;100.00
59787;BME280;45672;51.612;5.536;2023-03-03T07:05:51;102372.13;;;1.49;100.00
59787;BME280;45672;51.612;5.536;2023-03-03T07:08:19;102380.03;;;1.47;100.00
59787;BME280;45672;51.612;5.536;2023-03-03T07:10:46;102369.63;;;1.46;100.00
59787;BME280;45672;51.612;5.536;2023-03-03T07:13:20;102371.16;;;1.51;100.00
59787;BME280;45672;51.612;5.536;2023-03-03T07:15:48;102372.75;;;1.55;100.00
59787;BME280;45672;51.612;5.536;2023-03-03T07:20:47;102374.56;;;1.53;100.00
59787;BME280;45672;51.612;5.536;2023-03-03T07:23:20;102379.88;;;1.52;100.00
59787;BME280;45672;51.612;5.536;2023-03-03T07:25:47;102384.16;;;1.54;100.00
59787;BME280;45672;51.612;5.536;2023-03-03T07:28:27;102387.91;;;1.71;100.00
59787;BME280;45672;51.612;5.536;2023-03-03T07:30:54;102391.75;;;1.62;100.00
59787;BME280;45672;51.612;5.536;2023-03-03T07:35:53;102399.56;;;1.64;100.00
59787;BME280;45672;51.612;5.536;2023-03-03T07:38:46;102394.25;;;1.65;100.00
59787;BME280;45672;51.612;5.536;2023-03-03T07:41:16;102396.00;;;1.65;100.00
59787;BME280;45672;51.612;5.536;2023-03-03T07:44:12;102397.84;;;1.63;100.00
59787;BME280;45672;51.612;5.536;2023-03-03T07:49:23;102410.03;;;1.64;100.00
59787;BME280;45672;51.612;5.536;2023-03-03T07:51:53;102409.28;;;1.60;100.00
59787;BME280;45672;51.612;5.536;2023-03-03T07:54:34;102411.66;;;1.68;100.00
59787;BME280;45672;51.612;5.536;2023-03-03T07:59:34;102412.50;;;1.68;100.00
59787;BME280;45672;51.612;5.536;2023-03-03T08:02:01;102408.84;;;1.72;100.00
59787;BME280;45672;51.612;5.536;2023-03-03T08:04:35;102423.25;;;1.84;100.00
59787;BME280;45672;51.612;5.536;2023-03-03T08:07:10;102421.00;;;1.97;99.94
59787;BME280;45672;51.612;5.536;2023-03-03T08:09:42;102425.75;;;1.87;99.80
59787;BME280;45672;51.612;5.536;2023-03-03T08:12:22;102422.34;;;1.85;100.00
59787;BME280;45672;51.612;5.536;2023-03-03T08:14:50;102424.59;;;1.95;100.00
59787;BME280;45672;51.612;5.536;2023-03-03T08:17:26;102428.88;;;1.97;100.00
59787;BME280;45672;51.612;5.536;2023-03-03T08:19:54;102433.16;;;2.00;100.00
59787;BME280;45672;51.612;5.536;2023-03-03T08:22:34;102427.13;;;1.98;100.00
59787;BME280;45672;51.612;5.536;2023-03-03T08:25:02;102425.97;;;2.05;100.00
59787;BME280;45672;51.612;5.536;2023-03-03T08:27:28;102439.53;;;2.16;100.00
59787;BME280;45672;51.612;5.536;2023-03-03T08:29:53;102434.34;;;2.15;100.00
59787;BME280;45672;51.612;5.536;2023-03-03T08:32:18;102442.16;;;2.16;100.00
59787;BME280;45672;51.612;5.536;2023-03-03T08:34:44;102450.69;;;2.21;100.00
59787;BME280;45672;51.612;5.536;2023-03-03T08:37:09;102445.28;;;2.24;99.59
59787;BME280;45672;51.612;5.536;2023-03-03T08:39:35;102453.94;;;2.28;98.74
59787;BME280;45672;51.612;5.536;2023-03-03T08:42:00;102451.63;;;2.20;98.76
59787;BME280;45672;51.612;5.536;2023-03-03T08:44:25;102458.44;;;2.24;98.21
59787;BME280;45672;51.612;5.536;2023-03-03T08:46:51;102462.91;;;2.22;98.41
59787;BME280;45672;51.612;5.536;2023-03-03T08:49:16;102456.75;;;2.23;97.61
59787;BME280;45672;51.612;5.536;2023-03-03T08:51:41;102465.94;;;2.12;98.45
59787;BME280;45672;51.612;5.536;2023-03-03T08:54:07;102461.50;;;2.14;98.56
59787;BME280;45672;51.612;5.536;2023-03-03T08:56:32;102464.63;;;2.23;98.75
59787;BME280;45672;51.612;5.536;2023-03-03T08:58:58;102461.63;;;2.33;98.47
59787;BME280;45672;51.612;5.536;2023-03-03T09:01:23;102471.09;;;2.37;98.25
59787;BME280;45672;51.612;5.536;2023-03-03T09:03:48;102468.94;;;2.47;97.60
59787;BME280;45672;51.612;5.536;2023-03-03T09:06:14;102466.00;;;2.54;97.59
59787;BME280;45672;51.612;5.536;2023-03-03T09:08:39;102471.44;;;2.72;97.03
59787;BME280;45672;51.612;5.536;2023-03-03T09:11:14;102462.88;;;2.67;96.67
59787;BME280;45672;51.612;5.536;2023-03-03T09:13:43;102475.88;;;2.70;96.55
59787;BME280;45672;51.612;5.536;2023-03-03T09:16:13;102473.59;;;2.83;95.73
59787;BME280;45672;51.612;5.536;2023-03-03T09:18:39;102472.41;;;2.90;95.81
59787;BME280;45672;51.612;5.536;2023-03-03T09:21:25;102471.06;;;3.02;94.76
59787;BME280;45672;51.612;5.536;2023-03-03T09:23:56;102470.91;;;3.05;94.83
59787;BME280;45672;51.612;5.536;2023-03-03T09:31:42;102480.38;;;3.09;94.06
59787;BME280;45672;51.612;5.536;2023-03-03T09:34:19;102476.50;;;3.18;93.82
59787;BME280;45672;51.612;5.536;2023-03-03T09:36:45;102482.22;;;3.27;93.48
59787;BME280;45672;51.612;5.536;2023-03-03T09:39:28;102485.31;;;3.37;92.64
59787;BME280;45672;51.612;5.536;2023-03-03T09:53:16;102498.31;;;3.20;93.22
59787;BME280;45672;51.612;5.536;2023-03-03T09:55:52;102489.44;;;3.43;92.14
59787;BME280;45672;51.612;5.536;2023-03-03T09:58:33;102481.94;;;3.54;91.82
59787;BME280;45672;51.612;5.536;2023-03-03T10:04:14;102490.19;;;3.85;90.10
59787;BME280;45672;51.612;5.536;2023-03-03T10:07:02;102497.69;;;3.94;89.80
59787;BME280;45672;51.612;5.536;2023-03-03T10:17:50;102493.53;;;4.07;89.28
59787;BME280;45672;51.612;5.536;2023-03-03T10:20:37;102498.13;;;4.04;90.27
59787;BME280;45672;51.612;5.536;2023-03-03T10:26:29;102500.31;;;3.94;90.23
59787;BME280;45672;51.612;5.536;2023-03-03T10:31:46;102505.00;;;3.87;89.64
59787;BME280;45672;51.612;5.536;2023-03-03T10:36:54;102500.50;;;4.27;89.79
59787;BME280;45672;51.612;5.536;2023-03-03T10:45:03;102503.38;;;4.23;
59787;BME280;45672;51.612;5.536;2023-03-03T10:53:33;102506.28;;;4.36;89.04
59787;BME280;45672;51.612;5.536;2023-03-03T10:56:26;102498.78;;;4.45;88.70
59787;BME280;45672;51.612;5.536;2023-03-03T10:59:31;102485.25;;;4.34;88.10
59787;BME280;45672;51.612;5.536;2023-03-03T11:02:07;102502.19;;;4.47;88.63
59787;BME280;45672;51.612;5.536;2023-03-03T11:04:47;102497.16;;;4.60;87.67
59787;BME280;45672;51.612;5.536;2023-03-03T11:07:34;102500.13;;;4.72;87.30
59787;BME280;45672;51.612;5.536;2023-03-03T11:13:40;102500.53;;;4.81;87.27
59787;BME280;45672;51.612;5.536;2023-03-03T11:19:11;102500.44;;;5.18;85.57
59787;BME280;45672;51.612;5.536;2023-03-03T11:24:56;102495.06;;;5.37;85.71
59787;BME280;45672;51.612;5.536;2023-03-03T11:33:10;102486.41;;;5.17;85.58
59787;BME280;45672;51.612;5.536;2023-03-03T11:47:04;102476.41;;;5.58;83.67
59787;BME280;45672;51.612;5.536;2023-03-03T11:54:53;102478.09;;;5.25;83.50
59787;BME280;45672;51.612;5.536;2023-03-03T11:57:45;102477.13;;;5.10;83.90
59787;BME280;45672;51.612;5.536;2023-03-03T12:00:23;102479.50;;;4.97;83.55
59787;BME280;45672;51.612;5.536;2023-03-03T12:05:46;102482.44;;;5.09;83.94
59787;BME280;45672;51.612;5.536;2023-03-03T12:11:11;102464.47;;;4.99;84.42
59787;BME280;45672;51.612;5.536;2023-03-03T12:13:59;102462.88;;;5.13;84.59
59787;BME280;45672;51.612;5.536;2023-03-03T12:19:53;102451.75;;;5.41;84.42
59787;BME280;45672;51.612;5.536;2023-03-03T12:22:51;102455.19;;;5.59;83.26
59787;BME280;45672;51.612;5.536;2023-03-03T12:25:28;102448.47;;;5.69;82.77
59787;BME280;45672;51.612;5.536;2023-03-03T12:28:06;102453.53;;;5.90;83.18
59787;BME280;45672;51.612;5.536;2023-03-03T12:31:15;102452.34;;;6.12;81.64
59787;BME280;45672;51.612;5.536;2023-03-03T12:36:54;102448.81;;;6.43;79.85
59787;BME280;45672;51.612;5.536;2023-03-03T12:39:49;102445.84;;;6.33;79.83
59787;BME280;45672;51.612;5.536;2023-03-03T12:45:17;102438.69;;;6.19;80.96
59787;BME280;45672;51.612;5.536;2023-03-03T12:47:50;102436.13;;;6.18;79.97
59787;BME280;45672;51.612;5.536;2023-03-03T12:50:26;102444.06;;;6.18;80.22
59787;BME280;45672;51.612;5.536;2023-03-03T12:56:03;102420.47;;;6.15;79.46
59787;BME280;45672;51.612;5.536;2023-03-03T12:58:52;102434.28;;;6.20;79.79
59787;BME280;45672;51.612;5.536;2023-03-03T13:01:41;102433.72;;;6.29;78.78
59787;BME280;45672;51.612;5.536;2023-03-03T13:04:32;102426.25;;;6.21;77.68
59787;BME280;45672;51.612;5.536;2023-03-03T13:10:12;102422.84;;;6.35;77.81
59787;BME280;45672;51.612;5.536;2023-03-03T13:15:27;102421.13;;;6.34;77.30
59787;BME280;45672;51.612;5.536;2023-03-03T13:20:51;102415.47;;;6.41;76.97
59787;BME280;45672;51.612;5.536;2023-03-03T13:26:16;102411.09;;;6.55;76.57
59787;BME280;45672;51.612;5.536;2023-03-03T13:31:33;102411.97;;;6.70;75.69
59787;BME280;45672;51.612;5.536;2023-03-03T13:34:01;102414.16;;;6.78;75.30
59787;BME280;45672;51.612;5.536;2023-03-03T13:36:37;102406.97;;;6.80;74.90
59787;BME280;45672;51.612;5.536;2023-03-03T13:39:16;102411.69;;;6.75;75.80
59787;BME280;45672;51.612;5.536;2023-03-03T13:41:49;102415.84;;;6.79;74.38
59787;BME280;45672;51.612;5.536;2023-03-03T13:44:23;102410.09;;;6.72;74.35
59787;BME280;45672;51.612;5.536;2023-03-03T13:47:07;102408.09;;;6.76;74.52
59787;BME280;45672;51.612;5.536;2023-03-03T13:49:58;102401.59;;;6.82;74.91
59787;BME280;45672;51.612;5.536;2023-03-03T13:52:30;102399.94;;;6.95;74.95
59787;BME280;45672;51.612;5.536;2023-03-03T13:55:12;102400.38;;;7.02;74.66
59787;BME280;45672;51.612;5.536;2023-03-03T13:58:02;102392.00;;;7.10;74.22
59787;BME280;45672;51.612;5.536;2023-03-03T14:00:51;102397.09;;;7.27;73.15
59787;BME280;45672;51.612;5.536;2023-03-03T14:03:49;102394.06;;;7.48;73.41
59787;BME280;45672;51.612;5.536;2023-03-03T14:06:22;102397.06;;;7.56;70.16
59787;BME280;45672;51.612;5.536;2023-03-03T14:17:02;102396.16;;;7.84;68.43
59787;BME280;45672;51.612;5.536;2023-03-03T14:19:34;102396.66;;;7.76;69.11
59787;BME280;45672;51.612;5.536;2023-03-03T14:24:26;102379.81;;;7.63;68.65
59787;BME280;45672;51.612;5.536;2023-03-03T14:26:53;102379.81;;;7.63;69.26
59787;BME280;45672;51.612;5.536;2023-03-03T14:29:29;102386.47;;;7.56;69.25
59787;BME280;45672;51.612;5.536;2023-03-03T14:31:57;102380.72;;;7.49;68.34
59787;BME280;45672;51.612;5.536;2023-03-03T14:36:49;102384.59;;;7.58;67.67
59787;BME280;45672;51.612;5.536;2023-03-03T14:39:36;102379.81;;;7.63;68.09
59787;BME280;45672;51.612;5.536;2023-03-03T14:42:12;102377.44;;;7.73;67.93
59787;BME280;45672;51.612;5.536;2023-03-03T14:49:36;102370.53;;;7.85;65.31
59787;BME280;45672;51.612;5.536;2023-03-03T14:52:18;102365.75;;;7.90;66.70
59787;BME280;45672;51.612;5.536;2023-03-03T14:54:50;102367.88;;;7.85;66.11
59787;BME280;45672;51.612;5.536;2023-03-03T15:05:26;102366.69;;;7.62;65.95
59787;BME280;45672;51.612;5.536;2023-03-03T15:15:34;102355.88;;;7.23;68.18
59787;BME280;45672;51.612;5.536;2023-03-03T15:18:09;102348.59;;;7.27;70.22
59787;BME280;45672;51.612;5.536;2023-03-03T15:20:41;102347.53;;;7.44;68.75
59787;BME280;45672;51.612;5.536;2023-03-03T15:23:21;102347.41;;;7.59;68.61
59787;BME280;45672;51.612;5.536;2023-03-03T15:25:57;102342.47;;;7.68;67.42
59787;BME280;45672;51.612;5.536;2023-03-03T15:28:38;102338.56;;;7.73;67.51
59787;BME280;45672;51.612;5.536;2023-03-03T15:34:23;102338.09;;;7.67;68.33
59787;BME280;45672;51.612;5.536;2023-03-03T15:40:02;102317.78;;;7.53;68.37
59787;BME280;45672;51.612;5.536;2023-03-03T15:48:14;102330.59;;;7.32;68.04
59787;BME280;45672;51.612;5.536;2023-03-03T15:54:13;102328.13;;;7.43;67.33
59787;BME280;45672;51.612;5.536;2023-03-03T15:57:00;102323.00;;;7.54;67.61
59787;BME280;45672;51.612;5.536;2023-03-03T15:59:49;102323.88;;;7.55;67.46
59787;BME280;45672;51.612;5.536;2023-03-03T16:02:35;102319.59;;;7.52;67.09
59787;BME280;45672;51.612;5.536;2023-03-03T16:05:14;102321.22;;;7.55;67.26
59787;BME280;45672;51.612;5.536;2023-03-03T16:10:33;102322.56;;;7.48;67.54
59787;BME280;45672;51.612;5.536;2023-03-03T16:13:22;102317.84;;;7.38;67.24